Time;durP1;ratioP1;P1;durP2;ratioP2;P2;SDS_P1;SDS_P2;PMS_P1;PMS_P2;Temp;Humidity;BMP_temperature;BMP_pressure;BME280_temperature;BME280_humidity;BME280_pressure;Samples;Min_cycle;Max_cycle;Signal;HPM_P1;HPM_P2
2023/10/20 00:01:11;;;;;;;90.93;26.50;;;13.50;38.70;;;;;;4990069;28;20476;-64
2023/10/20 00:03:38;;;;;;;205.17;32.13;;;13.50;38.90;;;;;;4986763;28;20962;-66
2023/10/20 00:06:05;;;;;;;96.87;28.97;;;13.50;39.00;;;;;;4989585;28;20460;-66
2023/10/20 00:08:32;;;;;;;126.23;30.93;;;13.40;39.00;;;;;;4990422;28;20500;-66
2023/10/20 00:11:04;;;;;;;61.73;26.90;;;13.40;39.20;;;;;;4992424;28;21017;-65
2023/10/20 00:13:31;;;;;;;70.43;25.77;;;13.40;39.10;;;;;;4995751;28;20463;-65
2023/10/20 00:15:58;;;;;;;64.97;25.67;;;13.40;39.20;;;;;;4990704;28;20489;-65
2023/10/20 00:18:24;;;;;;;150.33;32.23;;;13.40;39.20;;;;;;4990576;28;20464;-65
2023/10/20 00:20:51;;;;;;;45.57;25.60;;;13.40;39.20;;;;;;4990538;28;20469;-66
2023/10/20 00:23:18;;;;;;;52.50;25.37;;;13.40;39.30;;;;;;4994074;28;20464;-65
2023/10/20 00:25:45;;;;;;;30.43;24.30;;;13.40;39.20;;;;;;4993361;28;20491;-65
2023/10/20 00:28:13;;;;;;;55.90;25.90;;;13.40;39.20;;;;;;4994583;28;20965;-66
2023/10/20 00:30:40;;;;;;;62.93;27.60;;;13.40;39.10;;;;;;4990537;28;20464;-66
2023/10/20 00:33:07;;;;;;;43.73;24.47;;;13.40;39.10;;;;;;4990739;28;20472;-66
2023/10/20 00:35:33;;;;;;;53.13;25.33;;;13.40;39.10;;;;;;4989884;28;20949;-66
2023/10/20 00:38:01;;;;;;;28.00;23.00;;;13.40;39.10;;;;;;4992001;28;20460;-65
2023/10/20 00:40:27;;;;;;;27.70;24.70;;;13.40;39.10;;;;;;4993397;28;20505;-64
2023/10/20 00:42:54;;;;;;;32.30;23.90;;;13.40;39.00;;;;;;4987106;28;20957;-64
2023/10/20 00:45:22;;;;;;;26.53;22.77;;;13.50;39.00;;;;;;4989978;28;20484;-64
2023/10/20 00:47:49;;;;;;;26.37;23.57;;;13.40;38.90;;;;;;4988712;28;20464;-64
2023/10/20 00:50:17;;;;;;;38.77;25.10;;;13.40;38.80;;;;;;4990977;28;20489;-64
2023/10/20 00:52:47;;;;;;;31.93;24.73;;;13.50;38.80;;;;;;4989312;28;20475;-64
2023/10/20 00:55:15;;;;;;;41.90;25.30;;;13.50;38.80;;;;;;4993590;28;21036;-65
2023/10/20 00:57:43;;;;;;;31.23;23.77;;;13.50;38.70;;;;;;4995106;28;20463;-64
2023/10/20 01:00:11;;;;;;;53.50;25.47;;;13.50;38.80;;;;;;4990682;28;20457;-65
2023/10/20 01:02:40;;;;;;;39.83;25.37;;;13.50;38.70;;;;;;4989778;28;20492;-64
2023/10/20 01:05:08;;;;;;;26.57;23.67;;;13.50;38.70;;;;;;4992530;28;20499;-66
2023/10/20 01:07:35;;;;;;;34.90;25.43;;;13.50;38.80;;;;;;4990837;28;20467;-64
2023/10/20 01:10:04;;;;;;;35.13;25.80;;;13.50;38.80;;;;;;4987142;28;20480;-66
2023/10/20 01:12:31;;;;;;;26.83;23.53;;;13.50;38.60;;;;;;4995293;28;20467;-65
2023/10/20 01:14:59;;;;;;;30.47;25.07;;;13.50;38.60;;;;;;4991033;28;21024;-65
2023/10/20 01:17:27;;;;;;;30.80;24.37;;;13.50;38.40;;;;;;4991308;28;20552;-64
2023/10/20 01:19:55;;;;;;;66.87;27.27;;;13.50;38.40;;;;;;4992104;28;20598;-66
2023/10/20 01:22:22;;;;;;;90.33;28.73;;;13.50;38.40;;;;;;4993460;28;20494;-65
2023/10/20 01:24:50;;;;;;;39.87;26.07;;;13.50;38.50;;;;;;4991362;28;20544;-65
2023/10/20 01:27:17;;;;;;;88.23;29.83;;;13.60;38.40;;;;;;4993474;28;20464;-66
2023/10/20 01:29:44;;;;;;;103.87;27.67;;;13.60;38.90;;;;;;4990904;28;20496;-65
2023/10/20 01:32:11;;;;;;;56.23;27.37;;;13.50;38.40;;;;;;4987391;28;20500;-64
2023/10/20 01:34:37;;;;;;;245.07;36.43;;;13.50;39.00;;;;;;4994465;28;21196;-64
2023/10/20 01:37:04;;;;;;;60.90;27.10;;;13.50;38.60;;;;;;4993136;28;20461;-64
2023/10/20 01:39:31;;;;;;;101.17;28.40;;;13.50;38.80;;;;;;4991960;28;20466;-64
2023/10/20 01:41:59;;;;;;;134.23;31.50;;;13.50;38.70;;;;;;4988187;28;20472;-64
2023/10/20 01:44:25;;;;;;;78.17;29.10;;;13.50;38.60;;;;;;4993632;28;20480;-64
2023/10/20 01:46:52;;;;;;;61.43;28.40;;;13.50;39.30;;;;;;4991840;28;20469;-64
2023/10/20 01:49:19;;;;;;;103.17;28.90;;;13.50;38.70;;;;;;4990640;28;20476;-65
2023/10/20 01:51:46;;;;;;;95.47;30.00;;;13.50;38.60;;;;;;4991655;28;20487;-64
2023/10/20 01:54:13;;;;;;;111.70;30.47;;;13.50;38.50;;;;;;4991704;28;20484;-64
2023/10/20 01:56:39;;;;;;;209.67;36.13;;;13.50;38.60;;;;;;4993783;28;20467;-64
2023/10/20 01:59:07;;;;;;;137.00;31.27;;;13.50;38.80;;;;;;4992347;28;20465;-64
2023/10/20 02:01:34;;;;;;;108.33;30.03;;;13.50;38.80;;;;;;4992173;28;20480;-64
2023/10/20 02:04:01;;;;;;;156.83;33.00;;;13.50;38.70;;;;;;4988459;28;20516;-64
2023/10/20 02:06:28;;;;;;;63.70;28.97;;;13.50;38.80;;;;;;4993457;28;21088;-66
2023/10/20 02:08:55;;;;;;;157.93;33.13;;;13.40;38.80;;;;;;4990323;28;20469;-64
2023/10/20 02:11:21;;;;;;;87.93;30.00;;;13.40;38.90;;;;;;4991798;28;20485;-64
2023/10/20 02:13:48;;;;;;;35.07;26.03;;;13.50;38.80;;;;;;4990566;28;20468;-65
2023/10/20 02:16:16;;;;;;;247.87;37.07;;;13.40;38.90;;;;;;4996314;28;20468;-64
2023/10/20 02:18:43;;;;;;;65.50;29.73;;;13.40;38.70;;;;;;4990779;28;21034;-64
2023/10/20 02:21:09;;;;;;;56.63;28.70;;;13.50;38.70;;;;;;4989986;28;20461;-64
2023/10/20 02:23:38;;;;;;;71.33;27.20;;;13.40;38.80;;;;;;4988726;28;20468;-64
2023/10/20 02:26:07;;;;;;;35.20;26.63;;;13.40;38.90;;;;;;4990373;28;20515;-64
2023/10/20 02:28:34;;;;;;;74.40;29.93;;;13.40;39.50;;;;;;4992011;28;20468;-64
2023/10/20 02:31:01;;;;;;;34.67;28.87;;;13.40;39.00;;;;;;4989940;28;20492;-64
2023/10/20 02:33:30;;;;;;;37.37;27.37;;;13.30;39.10;;;;;;4985192;28;20845;-64
2023/10/20 02:35:57;;;;;;;33.23;27.27;;;13.30;39.20;;;;;;4990442;28;20488;-64
2023/10/20 02:38:24;;;;;;;34.50;26.67;;;13.30;39.20;;;;;;4994486;28;20465;-64
2023/10/20 02:40:51;;;;;;;36.17;28.20;;;13.30;39.10;;;;;;4983797;28;21000;-64
2023/10/20 02:43:17;;;;;;;37.30;28.30;;;13.30;39.10;;;;;;4989765;28;20465;-65
2023/10/20 02:45:48;;;;;;;34.03;28.07;;;13.30;39.20;;;;;;4987824;28;20853;-64
2023/10/20 02:48:15;;;;;;;40.03;28.87;;;13.30;39.10;;;;;;4988041;28;20550;-64
2023/10/20 02:50:44;;;;;;;35.77;28.53;;;13.30;39.00;;;;;;4993042;28;20484;-64
2023/10/20 02:53:10;;;;;;;34.73;27.73;;;13.30;39.10;;;;;;4985449;28;20477;-64
2023/10/20 02:55:38;;;;;;;32.80;26.93;;;13.30;38.90;;;;;;4994503;28;20472;-64
2023/10/20 02:58:05;;;;;;;39.20;28.90;;;13.40;38.70;;;;;;4985316;28;20523;-64
2023/10/20 03:00:31;;;;;;;36.10;27.50;;;13.40;38.90;;;;;;4984341;28;20472;-64
2023/10/20 03:02:59;;;;;;;42.03;29.30;;;13.40;38.80;;;;;;5022921;23;20532;-65
2023/10/20 03:05:29;;;;;;;34.97;27.70;;;13.40;38.70;;;;;;5040003;28;20492;-65
2023/10/20 03:07:57;;;;;;;36.17;28.50;;;13.40;38.60;;;;;;5043064;28;20557;-65
2023/10/20 03:10:24;;;;;;;36.13;28.77;;;13.40;38.60;;;;;;5044715;28;20485;-65
2023/10/20 03:12:51;;;;;;;36.10;28.67;;;13.40;38.50;;;;;;5043711;28;20577;-64
2023/10/20 03:15:18;;;;;;;38.87;29.83;;;13.30;38.60;;;;;;5043194;28;20477;-65
2023/10/20 03:17:44;;;;;;;37.67;29.43;;;13.30;38.60;;;;;;5042489;28;20463;-65
2023/10/20 03:20:14;;;;;;;34.37;28.60;;;13.30;38.60;;;;;;5037708;28;20466;-64
2023/10/20 03:22:41;;;;;;;36.73;28.77;;;13.20;38.80;;;;;;5040900;28;20604;-65
2023/10/20 03:25:11;;;;;;;39.07;31.23;;;13.20;38.60;;;;;;5038329;28;20486;-65
2023/10/20 03:27:38;;;;;;;36.47;29.90;;;13.30;38.90;;;;;;5043946;28;20482;-65
2023/10/20 03:30:06;;;;;;;37.37;29.17;;;13.30;38.70;;;;;;5042404;28;20494;-65
2023/10/20 03:32:33;;;;;;;38.83;31.27;;;13.20;38.70;;;;;;5037778;28;20486;-67
2023/10/20 03:35:00;;;;;;;42.77;31.40;;;13.30;38.70;;;;;;5039937;28;20482;-67
2023/10/20 03:37:27;;;;;;;39.00;30.40;;;13.30;38.60;;;;;;5042387;28;20477;-67
2023/10/20 03:39:54;;;;;;;37.50;28.00;;;13.20;38.50;;;;;;5042276;28;20458;-67
2023/10/20 03:42:22;;;;;;;40.87;29.00;;;13.20;38.50;;;;;;5044389;28;20459;-67
2023/10/20 03:44:49;;;;;;;38.13;29.70;;;13.20;38.40;;;;;;5046511;28;20539;-67
2023/10/20 03:47:17;;;;;;;39.17;30.90;;;13.20;38.30;;;;;;5044815;28;20459;-67
2023/10/20 03:49:44;;;;;;;42.53;28.07;;;13.20;38.30;;;;;;5047312;28;20468;-67
2023/10/20 03:52:11;;;;;;;39.17;29.73;;;13.20;38.20;;;;;;5039856;28;20504;-68
2023/10/20 03:54:38;;;;;;;35.07;30.43;;;13.20;38.00;;;;;;5046785;28;20477;-68
2023/10/20 03:57:05;;;;;;;34.90;29.37;;;13.20;38.20;;;;;;5049455;28;20487;-67
2023/10/20 03:59:34;;;;;;;39.80;30.30;;;13.20;37.90;;;;;;5045863;28;20468;-67
2023/10/20 04:02:01;;;;;;;39.00;29.33;;;13.10;38.10;;;;;;5042500;28;20577;-68
2023/10/20 04:04:28;;;;;;;41.50;29.37;;;13.10;38.20;;;;;;5043004;28;20486;-67
2023/10/20 04:06:54;;;;;;;35.87;30.10;;;13.10;38.10;;;;;;5042167;28;21213;-68
2023/10/20 04:09:22;;;;;;;38.33;31.37;;;13.10;38.40;;;;;;5047125;28;20520;-67
2023/10/20 04:11:49;;;;;;;38.90;28.83;;;13.10;38.20;;;;;;5038540;28;20486;-68
2023/10/20 04:14:15;;;;;;;37.50;29.43;;;13.10;38.20;;;;;;5037268;28;20512;-68
2023/10/20 04:16:45;;;;;;;38.50;32.40;;;13.10;38.10;;;;;;5043769;28;20477;-68
2023/10/20 04:19:14;;;;;;;39.87;31.07;;;13.10;38.10;;;;;;5046867;28;20472;-70
2023/10/20 04:21:43;;;;;;;45.70;35.17;;;13.10;38.10;;;;;;5045689;28;20458;-69
2023/10/20 04:24:10;;;;;;;44.00;33.00;;;13.00;38.00;;;;;;5043085;28;20486;-66
2023/10/20 04:26:38;;;;;;;42.10;32.57;;;13.00;37.90;;;;;;5045285;28;20458;-66
2023/10/20 04:29:23;;;;;;;40.10;32.23;;;13.00;38.00;;;;;;5045370;28;20467;-66
2023/10/20 04:43:35;;;;;;;39.87;32.27;;;12.90;38.20;;;;;;5046098;28;20533;-67
2023/10/20 04:54:44;;;;;;;46.70;35.37;;;12.80;38.10;;;;;;5017551;28;20629;-66
2023/10/20 05:00:30;;;;;;;40.30;33.70;;;12.80;38.30;;;;;;5045564;28;20462;-66
2023/10/20 05:02:56;;;;;;;41.40;33.07;;;12.80;38.20;;;;;;5043895;28;20510;-66
2023/10/20 05:05:33;;;;;;;43.10;35.07;;;12.80;38.10;;;;;;5042806;28;20482;-66
2023/10/20 05:08:04;;;;;;;41.00;32.83;;;12.70;38.10;;;;;;5044150;28;20458;-66
2023/10/20 05:10:32;;;;;;;41.27;33.03;;;12.70;38.10;;;;;;5045088;28;20513;-66
2023/10/20 05:12:59;;;;;;;41.90;33.77;;;12.70;38.20;;;;;;5047328;28;20568;-66
2023/10/20 05:15:26;;;;;;;43.10;34.43;;;12.70;38.00;;;;;;5042848;28;20979;-66
2023/10/20 05:17:53;;;;;;;39.87;32.40;;;12.70;37.90;;;;;;5046290;28;20472;-65
2023/10/20 05:20:20;;;;;;;39.93;32.73;;;12.70;38.00;;;;;;5042655;28;20927;-66
2023/10/20 05:22:49;;;;;;;43.43;34.87;;;12.70;37.90;;;;;;5047004;28;20446;-65
2023/10/20 05:25:15;;;;;;;40.07;33.70;;;12.70;37.90;;;;;;5043356;28;20510;-66
2023/10/20 05:27:42;;;;;;;44.43;33.17;;;12.70;38.00;;;;;;5037878;28;20458;-66
2023/10/20 05:30:10;;;;;;;45.97;35.13;;;12.60;37.90;;;;;;5037532;28;20472;-67
2023/10/20 05:32:37;;;;;;;42.37;35.07;;;12.60;38.00;;;;;;5044653;28;20837;-68
2023/10/20 05:35:07;;;;;;;42.90;34.00;;;12.60;37.80;;;;;;5044976;28;20474;-66
2023/10/20 05:37:34;;;;;;;42.03;34.20;;;12.60;38.10;;;;;;5040826;28;20466;-67
2023/10/20 05:40:02;;;;;;;41.00;33.30;;;12.60;38.10;;;;;;5043444;28;20469;-66
2023/10/20 05:42:29;;;;;;;45.00;34.77;;;12.50;38.00;;;;;;5044341;28;20482;-66
2023/10/20 05:45:03;;;;;;;40.17;33.13;;;12.50;38.10;;;;;;5042982;28;20611;-67
2023/10/20 05:47:29;;;;;;;44.23;35.90;;;12.50;38.10;;;;;;5043626;28;20458;-67
2023/10/20 05:49:57;;;;;;;44.67;36.50;;;12.50;38.20;;;;;;5048455;28;20496;-67
2023/10/20 05:52:24;;;;;;;44.20;36.27;;;12.50;38.30;;;;;;5041196;28;20876;-66
2023/10/20 05:54:51;;;;;;;52.67;38.23;;;12.40;38.30;;;;;;5047058;28;20493;-66
2023/10/20 05:57:19;;;;;;;47.67;36.30;;;12.40;38.20;;;;;;5042475;28;20462;-67
2023/10/20 05:59:46;;;;;;;43.10;34.50;;;12.40;38.20;;;;;;5040990;28;20462;-68
2023/10/20 06:02:13;;;;;;;43.80;36.00;;;12.40;38.30;;;;;;5041487;28;20714;-66
2023/10/20 06:04:39;;;;;;;44.07;35.83;;;12.40;38.30;;;;;;5039603;28;20492;-67
2023/10/20 06:07:07;;;;;;;47.70;34.37;;;12.40;38.30;;;;;;5039203;28;20473;-67
2023/10/20 06:09:34;;;;;;;47.73;35.53;;;12.30;38.40;;;;;;5042806;28;20462;-67
2023/10/20 06:12:02;;;;;;;42.00;35.67;;;12.30;38.40;;;;;;5043879;28;21023;-66
2023/10/20 06:14:30;;;;;;;43.37;34.33;;;12.30;38.60;;;;;;5037159;28;20486;-65
2023/10/20 06:16:57;;;;;;;46.60;35.57;;;12.20;38.70;;;;;;5038440;28;20458;-66
2023/10/20 06:19:24;;;;;;;46.87;35.30;;;12.20;38.80;;;;;;5047778;28;20458;-66
2023/10/20 06:21:51;;;;;;;44.17;35.53;;;12.20;38.80;;;;;;5046048;28;20458;-66
2023/10/20 06:24:18;;;;;;;45.90;36.73;;;12.20;38.60;;;;;;5045497;28;20482;-65
2023/10/20 06:26:45;;;;;;;40.90;34.50;;;12.20;39.00;;;;;;5044917;28;20473;-67
2023/10/20 06:29:26;;;;;;;50.23;36.60;;;12.20;38.80;;;;;;5046492;28;20458;-66
2023/10/20 06:31:57;;;;;;;46.77;37.07;;;12.20;38.90;;;;;;5039647;28;23437;-65
2023/10/20 06:34:24;;;;;;;46.67;37.57;;;12.10;39.30;;;;;;5043299;28;20539;-67
2023/10/20 06:36:59;;;;;;;48.30;36.70;;;12.20;39.20;;;;;;5046765;28;20454;-66
2023/10/20 06:39:26;;;;;;;44.83;38.10;;;12.20;39.10;;;;;;5046906;28;20489;-65
2023/10/20 06:41:53;;;;;;;45.10;34.80;;;12.20;39.10;;;;;;5046126;28;20459;-65
2023/10/20 06:44:19;;;;;;;45.57;36.73;;;12.20;39.10;;;;;;5036500;28;20497;-65
2023/10/20 06:46:46;;;;;;;49.37;38.27;;;12.10;39.40;;;;;;5044922;28;20951;-66
2023/10/20 06:49:18;;;;;;;49.77;40.60;;;12.20;39.20;;;;;;5044076;28;20553;-66
2023/10/20 06:51:45;;;;;;;45.50;37.90;;;12.20;39.30;;;;;;5045745;28;20474;-66
2023/10/20 06:54:12;;;;;;;43.60;34.83;;;12.20;39.20;;;;;;5045809;28;20504;-67
2023/10/20 06:56:39;;;;;;;41.40;33.97;;;12.20;39.20;;;;;;5045285;28;20494;-66
2023/10/20 06:59:06;;;;;;;39.90;34.23;;;12.30;39.00;;;;;;5042731;28;20466;-67
2023/10/20 07:01:33;;;;;;;40.07;32.03;;;12.30;38.80;;;;;;5043458;28;20474;-67
2023/10/20 07:03:59;;;;;;;43.47;33.30;;;12.30;38.80;;;;;;5041507;28;20486;-68
2023/10/20 07:06:27;;;;;;;75.83;50.73;;;12.30;38.80;;;;;;5039094;28;20525;-67
2023/10/20 07:08:54;;;;;;;45.23;37.87;;;12.30;38.80;;;;;;5042703;28;20228;-67
2023/10/20 07:11:24;;;;;;;41.53;33.03;;;12.30;38.90;;;;;;5044675;28;20472;-67
2023/10/20 07:13:50;;;;;;;40.17;33.13;;;12.30;38.90;;;;;;5043143;28;20461;-67
2023/10/20 07:16:17;;;;;;;42.13;32.43;;;12.30;39.10;;;;;;5040920;28;20466;-67
2023/10/20 07:18:44;;;;;;;39.97;32.10;;;12.30;38.90;;;;;;5040953;28;20473;-67
2023/10/20 07:21:11;;;;;;;41.97;33.30;;;12.30;39.00;;;;;;5040151;28;20458;-67
2023/10/20 07:23:39;;;;;;;40.43;33.10;;;12.30;39.00;;;;;;5037585;28;21215;-66
2023/10/20 07:26:07;;;;;;;39.53;32.60;;;12.30;39.00;;;;;;5041458;28;20456;-66
2023/10/20 07:28:34;;;;;;;38.00;30.73;;;12.40;38.70;;;;;;5042007;28;20997;-66
2023/10/20 07:31:10;;;;;;;39.60;32.97;;;12.30;38.90;;;;;;5042598;28;20493;-66
2023/10/20 07:33:37;;;;;;;46.20;34.53;;;12.30;39.20;;;;;;5039072;28;20460;-66
2023/10/20 07:36:05;;;;;;;39.53;32.07;;;12.30;39.20;;;;;;5046637;28;20466;-66
2023/10/20 07:38:32;;;;;;;43.30;33.40;;;12.30;39.30;;;;;;5044706;28;20774;-66
2023/10/20 07:41:06;;;;;;;39.80;33.37;;;12.30;39.10;;;;;;5047503;28;20465;-66
2023/10/20 07:43:33;;;;;;;42.20;34.20;;;12.40;39.00;;;;;;5044454;28;20540;-66
2023/10/20 07:45:59;;;;;;;42.33;34.23;;;12.40;39.10;;;;;;5037879;28;20488;-69
2023/10/20 07:48:26;;;;;;;40.10;31.70;;;12.40;38.80;;;;;;5036329;28;20469;-66
2023/10/20 07:50:54;;;;;;;39.73;33.80;;;12.50;38.80;;;;;;5041686;28;20453;-65
2023/10/20 07:53:21;;;;;;;42.57;32.87;;;12.50;38.50;;;;;;5046138;28;20822;-65
2023/10/20 07:55:47;;;;;;;37.50;31.40;;;12.50;38.40;;;;;;5045368;28;20469;-65
2023/10/20 07:58:15;;;;;;;41.90;32.37;;;12.60;38.40;;;;;;5042367;28;20454;-67
2023/10/20 08:00:42;;;;;;;39.90;32.17;;;12.60;38.10;;;;;;5042782;28;21135;-65
2023/10/20 08:03:11;;;;;;;49.10;33.30;;;12.60;38.10;;;;;;5040208;28;20462;-66
2023/10/20 08:05:38;;;;;;;38.50;33.67;;;12.70;38.10;;;;;;5041511;28;20531;-66
2023/10/20 08:08:05;;;;;;;37.27;32.70;;;12.70;38.20;;;;;;5041174;28;20458;-64
2023/10/20 08:10:32;;;;;;;41.47;34.50;;;12.80;37.60;;;;;;5042356;28;20465;-65
2023/10/20 08:12:59;;;;;;;40.30;32.67;;;12.80;37.70;;;;;;5044258;28;20475;-65
2023/10/20 08:15:28;;;;;;;41.97;33.77;;;12.90;37.60;;;;;;5044146;28;21273;-66
2023/10/20 08:17:55;;;;;;;43.73;35.63;;;12.90;37.50;;;;;;5033474;28;20819;-67
2023/10/20 08:20:22;;;;;;;40.93;32.07;;;13.00;37.30;;;;;;5044019;28;20928;-68
2023/10/20 08:22:49;;;;;;;41.80;32.67;;;13.10;37.20;;;;;;5041900;28;20484;-67
2023/10/20 08:25:16;;;;;;;42.73;33.97;;;13.30;37.00;;;;;;5042776;28;20478;-68
2023/10/20 08:27:45;;;;;;;38.70;31.07;;;13.40;36.60;;;;;;5039876;28;20458;-68
2023/10/20 08:30:13;;;;;;;37.50;30.97;;;13.70;36.30;;;;;;5042829;28;20474;-68
2023/10/20 08:32:42;;;;;;;35.60;31.00;;;14.20;36.80;;;;;;5047530;28;20585;-68
2023/10/20 08:35:09;;;;;;;34.20;30.20;;;14.60;35.30;;;;;;5047781;28;20486;-68
2023/10/20 08:37:36;;;;;;;33.83;29.33;;;14.80;34.80;;;;;;5052215;28;20461;-69
2023/10/20 08:40:10;;;;;;;35.80;28.13;;;15.00;33.70;;;;;;5054371;28;20462;-67
2023/10/20 08:42:38;;;;;;;35.23;29.77;;;15.00;33.30;;;;;;5040719;28;20963;-68
2023/10/20 08:45:08;;;;;;;39.50;31.00;;;15.00;33.00;;;;;;5044719;28;20505;-68
2023/10/20 08:47:35;;;;;;;34.93;30.43;;;15.10;33.00;;;;;;5047128;28;20485;-66
2023/10/20 08:50:06;;;;;;;37.37;31.80;;;15.20;32.50;;;;;;5046824;28;20489;-67
2023/10/20 08:52:34;;;;;;;32.03;28.17;;;15.30;32.00;;;;;;5044789;28;20485;-73
2023/10/20 08:55:01;;;;;;;33.93;30.37;;;15.30;31.80;;;;;;5045145;28;20580;-69
2023/10/20 08:57:29;;;;;;;35.50;30.90;;;15.30;31.70;;;;;;5039350;28;20490;-69
2023/10/20 08:59:55;;;;;;;36.17;32.10;;;15.30;31.80;;;;;;5042190;28;20469;-71
2023/10/20 09:02:22;;;;;;;36.80;32.20;;;15.20;31.80;;;;;;5044318;28;20470;-71
2023/10/20 09:04:52;;;;;;;34.87;29.53;;;15.20;31.70;;;;;;5048440;28;20862;-71
2023/10/20 09:07:22;;;;;;;36.93;32.37;;;15.20;31.60;;;;;;5041361;28;20537;-71
2023/10/20 09:09:51;;;;;;;35.37;30.17;;;15.10;31.40;;;;;;5049042;28;20465;-71
2023/10/20 09:12:18;;;;;;;35.80;31.83;;;15.00;31.20;;;;;;5053919;22;20483;-67
2023/10/20 09:14:45;;;;;;;37.43;29.70;;;15.00;31.40;;;;;;5022720;28;20508;-66
2023/10/20 09:17:22;;;;;;;35.37;30.30;;;15.00;31.50;;;;;;5023467;28;20499;-67
2023/10/20 09:19:48;;;;;;;35.70;30.43;;;14.90;31.20;;;;;;5023128;28;20640;-66
2023/10/20 09:22:15;;;;;;;33.83;29.80;;;14.80;31.10;;;;;;5019887;28;20459;-66
2023/10/20 09:24:45;;;;;;;35.50;30.97;;;14.70;31.40;;;;;;5022601;28;20493;-66
2023/10/20 09:27:11;;;;;;;34.97;31.17;;;14.70;31.80;;;;;;5014421;28;20470;-66
2023/10/20 09:29:40;;;;;;;35.83;31.97;;;14.70;31.90;;;;;;5018749;28;20467;-66
2023/10/20 09:32:07;;;;;;;37.00;32.00;;;14.70;32.10;;;;;;5025704;28;20487;-67
2023/10/20 09:34:35;;;;;;;38.07;33.90;;;14.80;31.60;;;;;;5020731;28;20494;-67
2023/10/20 09:37:02;;;;;;;37.93;33.47;;;14.80;32.30;;;;;;5023017;28;20477;-65
2023/10/20 09:39:38;;;;;;;37.47;31.60;;;14.90;31.90;;;;;;5020608;28;20633;-65
2023/10/20 09:42:07;;;;;;;40.43;34.13;;;14.90;31.80;;;;;;5024759;28;20464;-66
2023/10/20 09:44:39;;;;;;;38.63;34.53;;;15.10;31.90;;;;;;5030031;28;20503;-67
2023/10/20 09:47:19;;;;;;;37.50;33.17;;;15.10;32.20;;;;;;5023091;28;20494;-67
2023/10/20 09:49:46;;;;;;;37.47;31.67;;;15.20;32.10;;;;;;5021110;28;20557;-68
2023/10/20 09:52:12;;;;;;;39.93;32.63;;;15.40;32.30;;;;;;5021793;28;20545;-65
2023/10/20 09:54:40;;;;;;;33.17;29.70;;;16.20;31.50;;;;;;5021992;28;23048;-66
2023/10/20 09:57:09;;;;;;;36.97;30.03;;;17.40;28.40;;;;;;5022379;28;20458;-67
2023/10/20 09:59:39;;;;;;;32.07;28.23;;;17.90;26.30;;;;;;5020918;28;20458;-65
2023/10/20 10:02:06;;;;;;;30.00;26.80;;;18.00;25.20;;;;;;5024858;28;20489;-65
2023/10/20 10:04:37;;;;;;;29.80;26.20;;;17.80;24.90;;;;;;5023064;28;20497;-65
2023/10/20 10:07:04;;;;;;;30.13;26.43;;;17.50;25.20;;;;;;5025093;28;20951;-67
2023/10/20 10:09:36;;;;;;;32.30;27.53;;;17.40;25.80;;;;;;5021524;28;20508;-67
2023/10/20 10:12:09;;;;;;;33.43;28.77;;;17.20;26.20;;;;;;5021064;28;21129;-66
2023/10/20 10:14:36;;;;;;;33.40;28.87;;;17.20;26.50;;;;;;5020085;28;21342;-65
2023/10/20 10:17:09;;;;;;;31.70;28.10;;;17.30;26.00;;;;;;5023281;28;20462;-65
2023/10/20 10:19:46;;;;;;;32.70;29.20;;;17.30;25.80;;;;;;5020745;28;20477;-65
2023/10/20 10:22:15;;;;;;;31.03;27.70;;;17.10;26.00;;;;;;5021708;28;20538;-65
2023/10/20 10:24:49;;;;;;;30.47;26.93;;;17.00;26.30;;;;;;5024033;28;20487;-66
2023/10/20 10:27:22;;;;;;;35.10;26.93;;;16.90;26.40;;;;;;5026236;28;20467;-67
2023/10/20 10:29:50;;;;;;;33.27;29.57;;;16.90;26.70;;;;;;5024363;28;20461;-67
2023/10/20 10:32:18;;;;;;;33.50;28.10;;;17.20;26.20;;;;;;5021291;28;20552;-65
2023/10/20 10:34:47;;;;;;;32.00;27.97;;;18.00;25.90;;;;;;5024339;28;20534;-66
2023/10/20 10:37:15;;;;;;;33.80;27.80;;;18.40;23.30;;;;;;5024263;28;20459;-66
2023/10/20 10:39:42;;;;;;;31.10;27.77;;;18.60;23.20;;;;;;5023617;28;20513;-66
2023/10/20 10:42:11;;;;;;;31.53;28.33;;;18.80;22.40;;;;;;5023984;28;20463;-66
2023/10/20 10:44:39;;;;;;;29.47;25.90;;;19.50;21.20;;;;;;5021873;28;20476;-66
2023/10/20 10:47:07;;;;;;;29.77;24.57;;;19.30;20.40;;;;;;5020477;28;20461;-67
2023/10/20 10:49:34;;;;;;;29.07;25.60;;;19.00;19.90;;;;;;5025015;28;20467;-66
2023/10/20 10:52:04;;;;;;;26.23;22.73;;;18.70;20.50;;;;;;5022796;28;21015;-66
2023/10/20 10:54:33;;;;;;;26.87;24.00;;;18.40;20.90;;;;;;5024329;28;20499;-66
2023/10/20 10:57:01;;;;;;;30.13;23.93;;;18.20;21.50;;;;;;5020723;28;20464;-65
2023/10/20 10:59:28;;;;;;;30.23;23.20;;;18.00;22.10;;;;;;5014368;28;20488;-66
2023/10/20 11:01:56;;;;;;;24.30;21.60;;;17.90;22.70;;;;;;5023666;28;20482;-66
2023/10/20 11:04:24;;;;;;;26.00;23.13;;;17.90;23.00;;;;;;5026625;28;20866;-66
2023/10/20 11:06:51;;;;;;;26.23;22.63;;;17.70;23.40;;;;;;5024800;28;20471;-66
2023/10/20 11:09:22;;;;;;;25.13;22.17;;;17.60;23.90;;;;;;5022741;28;20832;-66
2023/10/20 11:11:49;;;;;;;22.93;20.50;;;17.50;24.30;;;;;;5023078;28;20458;-66
2023/10/20 11:14:18;;;;;;;25.60;22.10;;;17.40;24.30;;;;;;5018951;28;21023;-66
2023/10/20 11:16:46;;;;;;;23.30;20.60;;;17.40;24.80;;;;;;5024974;28;20991;-66
2023/10/20 11:19:14;;;;;;;27.90;22.40;;;17.40;25.00;;;;;;5020719;28;20462;-66
2023/10/20 11:21:47;;;;;;;25.40;22.07;;;17.40;25.10;;;;;;5018760;28;20469;-66
2023/10/20 11:24:26;;;;;;;25.50;20.37;;;17.40;25.10;;;;;;5026242;28;20507;-66
2023/10/20 11:27:01;;;;;;;24.83;21.50;;;17.40;25.50;;;;;;5023888;28;20463;-66
2023/10/20 11:29:29;;;;;;;22.70;19.23;;;17.40;25.50;;;;;;5019773;28;20459;-66
2023/10/20 11:31:57;;;;;;;23.13;20.67;;;17.40;25.50;;;;;;5021108;28;20506;-66
2023/10/20 11:34:26;;;;;;;23.57;19.10;;;17.40;25.60;;;;;;5024566;28;20487;-66
2023/10/20 11:36:52;;;;;;;21.23;18.63;;;17.60;26.00;;;;;;5024962;28;20495;-66
2023/10/20 11:39:21;;;;;;;22.67;19.47;;;17.90;25.90;;;;;;5025737;28;20474;-66
2023/10/20 11:41:48;;;;;;;21.03;18.13;;;18.00;25.10;;;;;;5024414;28;20463;-66
2023/10/20 11:44:15;;;;;;;22.17;18.97;;;18.10;24.50;;;;;;5023779;28;20482;-66
2023/10/20 11:46:43;;;;;;;21.07;18.53;;;18.10;24.40;;;;;;5018556;28;20466;-66
2023/10/20 11:49:10;;;;;;;18.60;15.97;;;18.10;24.60;;;;;;5023055;28;20548;-66
2023/10/20 11:51:38;;;;;;;19.73;17.20;;;18.10;24.40;;;;;;5024060;28;20975;-66
2023/10/20 11:54:05;;;;;;;22.23;19.83;;;18.20;24.60;;;;;;5026034;28;20495;-66
2023/10/20 11:56:32;;;;;;;22.40;18.60;;;18.20;24.90;;;;;;5024223;28;20560;-67
2023/10/20 11:58:59;;;;;;;20.20;17.97;;;18.20;25.30;;;;;;5024752;28;20869;-66
2023/10/20 12:01:25;;;;;;;17.83;15.90;;;18.50;25.40;;;;;;5021334;28;20894;-66
2023/10/20 12:03:52;;;;;;;17.63;15.20;;;18.80;25.00;;;;;;5024928;28;21151;-66
2023/10/20 12:06:19;;;;;;;17.40;13.27;;;19.00;24.10;;;;;;5025902;28;20850;-66
2023/10/20 12:08:47;;;;;;;16.50;13.07;;;19.00;23.50;;;;;;5023072;28;20466;-66
2023/10/20 12:11:14;;;;;;;14.03;11.70;;;18.90;23.50;;;;;;5028952;28;20467;-66
2023/10/20 12:13:46;;;;;;;14.03;10.73;;;18.90;23.60;;;;;;5023020;28;20490;-66
2023/10/20 12:16:13;;;;;;;12.50;10.93;;;18.90;23.70;;;;;;5029112;28;20466;-66
2023/10/20 12:18:41;;;;;;;13.00;10.73;;;19.00;23.80;;;;;;5023219;28;20834;-66
2023/10/20 12:21:08;;;;;;;12.57;9.47;;;19.00;23.70;;;;;;5022343;28;20459;-66
2023/10/20 12:23:36;;;;;;;10.07;8.00;;;19.20;24.50;;;;;;5025109;28;20487;-66
2023/10/20 12:26:04;;;;;;;8.43;5.87;;;19.80;24.10;;;;;;5028578;28;20467;-66
2023/10/20 12:28:31;;;;;;;8.23;4.10;;;20.40;22.10;;;;;;5025581;28;20474;-66
2023/10/20 12:30:58;;;;;;;6.77;3.90;;;20.90;19.90;;;;;;5027604;28;21029;-66
2023/10/20 12:33:24;;;;;;;6.57;3.83;;;21.20;18.70;;;;;;5027336;28;20494;-66
2023/10/20 12:35:53;;;;;;;4.63;2.90;;;21.40;18.00;;;;;;5025779;28;20518;-66
2023/10/20 12:38:21;;;;;;;5.20;2.33;;;21.40;17.50;;;;;;5024560;28;20471;-66
2023/10/20 12:40:48;;;;;;;4.80;2.30;;;21.10;17.10;;;;;;5026872;28;20547;-66
2023/10/20 12:43:17;;;;;;;4.73;2.03;;;20.70;17.50;;;;;;5026160;28;20941;-66
2023/10/20 12:45:44;;;;;;;4.20;1.60;;;20.50;18.00;;;;;;5025461;28;20487;-66
2023/10/20 12:48:10;;;;;;;3.60;1.30;;;20.50;18.80;;;;;;5021109;28;20467;-66
2023/10/20 12:50:38;;;;;;;4.47;1.30;;;20.50;18.80;;;;;;5025771;28;20468;-66
2023/10/20 12:53:07;;;;;;;4.20;1.23;;;20.40;18.10;;;;;;5024877;28;20490;-66
2023/10/20 12:55:34;;;;;;;4.33;1.07;;;20.50;17.10;;;;;;5028343;28;20484;-66